• Join FlightAware (Why Join?)
  • Login
  • US Flag 
12:46PM EDT


 

Airport Tracker/Info


-or-


 

Live Flight TrackerFlight Track Log ✈ SWA3408 ✈ 07-Oct-2013 ✈ KPHX - KSJC

Flight Track Log - Related Links

Times and Time Zones

All times are in EDT time to prevent confusion due to time zone crossing. See the SWA3408 flight status page for this flight to view local times or setup timezone preferences in your user account.

Time Position Orientation Groundspeed Altitude Reporting Facility
EDT Latitude Longitude Course Direction KTS MPH feet Rate Location/Type
11:44AM 33.4333 -111.9833 90° East 172 198 1,800  Level Phoenix TRACON
11:45AM 33.4333 -111.8833 90° East 215 247 4,900 2,100 Climbing Phoenix TRACON
11:46AM 33.4000 -111.8500 140° Southeast 239 275 7,100 1,860 Climbing Phoenix TRACON
11:48AM 33.3686 -111.9492 249° West 275 316 9,300 1,500 Climbing Albuquerque Center
11:49AM 33.3500 -112.0492 257° West 313 360 10,800 1,800 Climbing Albuquerque Center
11:50AM 33.3653 -112.1628 279° West 346 398 13,100 1,980 Climbing Albuquerque Center
11:51AM 33.3800 -112.2797 279° West 353 406 15,000 1,860 Climbing Albuquerque Center
11:52AM 33.3967 -112.4011 279° West 365 420 17,000 1,800 Climbing Albuquerque Center
11:53AM 33.4158 -112.5475 279° West 371 427 18,800 1,560 Climbing Albuquerque Center
11:54AM 33.4328 -112.6733 279° West 382 440 20,300 1,440 Climbing Albuquerque Center
11:55AM 33.4503 -112.8008 279° West 387 445 21,800 1,380 Climbing Albuquerque Center
11:56AM 33.4731 -112.9294 282° West 393 452 23,200 1,260 Climbing Albuquerque Center
11:57AM 33.4986 -113.0586 283° West 399 459 24,500 1,200 Climbing Albuquerque Center
11:58AM 33.5286 -113.2158 283° West 404 465 25,700 1,020 Climbing Albuquerque Center
11:59AM 33.5544 -113.3492 283° West 410 472 26,700 1,020 Climbing Albuquerque Center
12:00PM 33.5794 -113.4850 282° West 416 479 27,900 1,320 Climbing Albuquerque Center
12:01PM 33.6053 -113.6219 283° West 420 483 29,500 1,440 Climbing Albuquerque Center
12:02PM 33.6311 -113.7633 282° West 418 481 30,900 1,500 Climbing Albuquerque Center
12:03PM 33.6558 -113.8969 283° West 413 475 32,700 1,740 Climbing Albuquerque Center
12:04PM 33.6808 -114.0247 283° West 400 460 34,500 1,200 Climbing Albuquerque Center
12:05PM 33.7122 -114.1739 284° West 387 445 35,300 720 Climbing Albuquerque Center
12:06PM 33.7361 -114.2928 284° West 388 447 36,000 300 Climbing Albuquerque Center
12:07PM 33.7617 -114.4200 284° West 391 450 36,000  Level Albuquerque Center
12:08PM 33.7861 -114.5478 283° West 393 452 36,000  Level Albuquerque Center
12:09PM 33.8167 -114.6961 284° West 393 452 36,000  Level Los Angeles Center
12:10PM 33.8419 -114.8244 283° West 394 453 36,000  Level Los Angeles Center
12:11PM 33.8667 -114.9511 283° West 391 450 36,000  Level Los Angeles Center
12:12PM 33.8908 -115.0789 283° West 392 451 36,000  Level Los Angeles Center
12:13PM 33.9203 -115.2311 283° West 391 450 36,000  Level Los Angeles Center
12:15PM 33.9450 -115.3583 283° West 391 450 36,000  Level Los Angeles Center
12:16PM 33.9689 -115.4853 283° West 391 450 36,000  Level Los Angeles Center
12:17PM 33.9928 -115.6108 283° West 389 448 36,000  Level Los Angeles Center
12:18PM 34.0167 -115.7375 283° West 389 448 36,000  Level Los Angeles Center
12:19PM 34.0450 -115.8903 283° West 390 449 36,000  Level Los Angeles Center
12:20PM 34.0683 -116.0153 283° West 387 445 36,000  Level Los Angeles Center
12:21PM 34.0919 -116.1431 283° West 390 449 36,000  Level Los Angeles Center
12:22PM 34.1147 -116.2706 282° West 391 450 36,000  Level Los Angeles Center
12:23PM 34.1408 -116.4125 283° West 398 458 36,000  Level Los Angeles Center
12:24PM 34.1642 -116.5394 283° West 391 450 36,000  Level Los Angeles Center
12:25PM 34.1867 -116.6672 282° West 389 448 36,000  Level Los Angeles Center
12:26PM 34.2106 -116.7964 283° West 393 452 36,000  Level Los Angeles Center
12:27PM 34.2328 -116.9247 282° West 392 451 36,000  Level Los Angeles Center
12:28PM 34.2600 -117.0789 282° West 391 450 36,000  Level Los Angeles Center
12:29PM 34.2825 -117.2017 283° West 390 449 36,000  Level Los Angeles Center
12:30PM 34.3042 -117.3308 282° West 393 452 36,000  Level Los Angeles Center
12:31PM 34.3267 -117.4589 282° West 393 452 36,000  Level Los Angeles Center
12:32PM 34.3519 -117.6150 281° West 396 456 36,000  Level Los Angeles Center
12:33PM 34.3747 -117.7450 282° West 397 457 36,000  Level Los Angeles Center
12:34PM 34.3939 -117.8606 281° West 399 459 36,000  Level Los Angeles Center
12:35PM 34.4222 -118.0169 282° West 398 458 36,000  Level Los Angeles Center
12:36PM 34.4836 -118.1375 302° West 428 493 36,000  Level Los Angeles Center
12:37PM 34.5558 -118.2667 304° West 427 491 36,000  Level Los Angeles Center
12:38PM 34.6203 -118.3822 304° West 421 484 36,000  Level Los Angeles Center
12:39PM 34.6847 -118.4989 304° West 419 482 36,000  Level Los Angeles Center
12:40PM 34.7489 -118.6167 304° West 419 482 36,000  Level Los Angeles Center
12:41PM 34.8139 -118.7339 304° West 420 483 36,000  Level Los Angeles Center
12:42PM 34.8928 -118.8761 304° West 425 489 36,000  Level Los Angeles Center
12:43PM 34.9569 -118.9933 304° West 417 480 36,000  Level Los Angeles Center
12:45PM 35.0231 -119.1119 304° West 423 487 36,000  Level Los Angeles Center
12:46PM 35.0883 -119.2319 304° West 426 490 36,000  Level Los Angeles Center
12:47PM 35.1531 -119.3514 304° West 424 488 36,000  Level Los Angeles Center
12:48PM 35.2178 -119.4708 304° West 424 488 36,000  Level Los Angeles Center
12:49PM 35.2950 -119.6144 303° West 425 489 36,000  Level Los Angeles Center
12:50PM 35.3592 -119.7342 303° West 424 488 36,000  Level Los Angeles Center
12:51PM 35.4228 -119.8508 304° West 416 479 36,000  Level Los Angeles Center
12:52PM 35.4869 -119.9708 303° West 420 483 36,000  Level Los Angeles Center
12:53PM 35.5497 -120.0900 303° West 422 486 36,000  Level Los Angeles Center
12:54PM 35.6214 -120.2272 303° West 422 486 36,000  Level Los Angeles Center
12:55PM 35.6875 -120.3531 303° West 422 486 36,000  Level Oakland Center
12:56PM 35.7425 -120.4781 298° West 420 483 36,000 -120 Level Oakland Center
12:57PM 35.7989 -120.6022 299° West 419 482 35,800 -660 Descending Oakland Center
12:58PM 35.8678 -120.7525 300° West 422 486 34,700 -1,080 Descending Oakland Center
12:59PM 35.9231 -120.8781 299° West 420 483 33,700 -1,500 Descending Oakland Center
01:00PM 35.9811 -121.0000 300° West 417 480 31,700 -2,520 Descending Oakland Center
01:01PM 36.0750 -121.0908 322° Northwest 432 497 28,600 -2,400 Descending Oakland Center
01:02PM 36.1750 -121.1761 325° Northwest 436 502 26,900 -1,980 Descending Oakland Center
01:03PM 36.2706 -121.2581 325° Northwest 420 483 24,600 -2,280 Descending Oakland Center
01:04PM 36.3625 -121.3375 325° Northwest 405 466 22,300 -2,220 Descending Oakland Center
01:05PM 36.4517 -121.4156 325° Northwest 395 455 20,200 -2,100 Descending Oakland Center
01:06PM 36.5422 -121.4836 329° Northwest 384 442 18,000 -2,160 Descending Oakland Center
01:07PM 36.6628 -121.5267 344° North 373 429 15,800 -2,100 Descending Oakland Center
01:08PM 36.7589 -121.5619 344° North 362 417 13,700 -1,860 Descending Oakland Center
01:09PM 36.8408 -121.5931 343° North 350 403 12,100 -1,380 Descending Oakland Center
01:10PM 36.9294 -121.6169 348° North 330 380 11,000 -1,320 Descending Oakland Center
01:11PM 37.0294 -121.6147 North 303 349 9,500 -1,320 Descending Oakland Center
01:12PM 37.1022 -121.6111 North 297 342 8,300 -1,440 Descending Oakland Center
01:13PM 37.1683 -121.6511 334° Northwest 285 328 6,600 -1,620 Descending Oakland Center
01:14PM 37.2206 -121.7364 308° West 280 322 5,000 -1,920 Descending Oakland Center
01:15PM 37.2592 -121.8144 302° West 273 314 2,800 -1,500 Descending Oakland Center
01:16PM 37.3028 -121.8631 318° Northwest 239 275 2,000 -1,080 Descending Oakland Center
01:17PM 37.3378 -121.9017 319° Northwest 194 223 700 -1,320 Descending Oakland Center
01:20PM 37.3500 -121.9167 North  Level FlightAware Approximate
01:27PM 37.3627 -121.9291 North  Level Estimated